createdAt,value
2019-04-07T00:01:24.073Z,97806.52
2019-04-07T00:03:53.325Z,97810.02
2019-04-07T00:06:23.612Z,97810.65
2019-04-07T00:08:56.338Z,97813.36
2019-04-07T00:11:27.843Z,97814.54
2019-04-07T00:13:57.949Z,97816.70
2019-04-07T00:16:27.434Z,97814.97
2019-04-07T00:18:57.841Z,97812.17
2019-04-07T00:21:28.069Z,97803.03
2019-04-07T00:23:58.134Z,97801.58
2019-04-07T00:26:28.099Z,97799.30
2019-04-07T00:28:57.934Z,97801.87
2019-04-07T00:31:29.104Z,97801.13
2019-04-07T00:33:58.306Z,97802.70
2019-04-07T00:36:28.312Z,97799.30
2019-04-07T00:38:58.445Z,97803.53
2019-04-07T00:41:29.968Z,97809.89
2019-04-07T00:44:00.011Z,97803.59
2019-04-07T00:46:30.116Z,97808.47
2019-04-07T00:49:00.302Z,97804.57
2019-04-07T00:51:29.769Z,97801.45
2019-04-07T00:53:59.832Z,97804.28
2019-04-07T00:56:29.305Z,97796.97
2019-04-07T00:58:58.844Z,97794.27
2019-04-07T01:01:31.855Z,97796.30
2019-04-07T01:04:02.488Z,97792.61
2019-04-07T01:06:31.986Z,97791.15
2019-04-07T01:09:01.819Z,97793.07
2019-04-07T01:11:31.229Z,97788.64
2019-04-07T01:14:03.126Z,97792.62
2019-04-07T01:16:32.745Z,97790.73
2019-04-07T01:19:03.433Z,97792.62
2019-04-07T01:21:33.186Z,97797.91
2019-04-07T01:24:02.489Z,97797.81
2019-04-07T01:26:32.733Z,97795.06
2019-04-07T01:29:02.965Z,97804.02
2019-04-07T01:31:33.040Z,97800.17
2019-04-07T01:34:03.225Z,97801.29
2019-04-07T01:36:32.920Z,97801.56
2019-04-07T01:39:02.958Z,97809.16
2019-04-07T01:41:43.003Z,97805.19
2019-04-07T01:44:27.651Z,97808.53
2019-04-07T01:47:16.731Z,97802.41
2019-04-07T01:50:02.228Z,97803.38
2019-04-07T01:52:51.223Z,97797.48
2019-04-07T01:55:32.261Z,97793.52
2019-04-07T01:58:22.740Z,97798.38
2019-04-07T02:01:04.611Z,97795.34
2019-04-07T02:03:57.251Z,97800.92
2019-04-07T02:06:46.615Z,97805.87
2019-04-07T02:09:35.831Z,97799.60
2019-04-07T02:12:36.698Z,97802.36
2019-04-07T02:15:23.029Z,97798.81
2019-04-07T02:18:13.560Z,97807.59
2019-04-07T02:21:03.373Z,97805.35
2019-04-07T02:23:51.352Z,97804.33
2019-04-07T02:26:57.674Z,97801.84
2019-04-07T02:29:38.085Z,97808.03
2019-04-07T02:32:25.896Z,97807.69
2019-04-07T02:35:25.875Z,97807.22
2019-04-07T02:38:00.379Z,97812.08
2019-04-07T02:40:57.415Z,97816.27
2019-04-07T02:43:34.065Z,97820.67
2019-04-07T02:46:35.175Z,97819.83
2019-04-07T02:49:36.593Z,97815.72
2019-04-07T02:52:23.733Z,97816.98
2019-04-07T02:55:14.728Z,97813.00
2019-04-07T02:58:06.544Z,97820.16
2019-04-07T03:00:42.109Z,97819.46
2019-04-07T03:03:39.152Z,97819.30
2019-04-07T03:06:39.181Z,97827.23
2019-04-07T03:09:16.836Z,97825.52
2019-04-07T03:12:05.672Z,97818.81
2019-04-07T03:14:54.378Z,97819.75
2019-04-07T03:17:31.960Z,97820.06
2019-04-07T03:20:18.939Z,97823.34
2019-04-07T03:23:10.781Z,97823.27
2019-04-07T03:26:00.717Z,97824.59
2019-04-07T03:28:43.899Z,97827.12
2019-04-07T03:31:36.531Z,97831.92
2019-04-07T03:34:33.466Z,97836.67
2019-04-07T03:37:33.100Z,97831.91
2019-04-07T03:40:11.603Z,97832.00
2019-04-07T03:42:59.361Z,97841.17
2019-04-07T03:45:36.434Z,97836.91
2019-04-07T03:48:31.785Z,97839.08
2019-04-07T03:51:33.161Z,97840.31
2019-04-07T03:54:16.670Z,97834.80
2019-04-07T03:57:03.461Z,97836.83
2019-04-07T03:59:53.986Z,97843.17
2019-04-07T04:02:42.384Z,97839.69
2019-04-07T04:05:28.103Z,97833.22
2019-04-07T04:08:26.610Z,97833.48
2019-04-07T04:11:06.545Z,97840.09
2019-04-07T04:13:58.265Z,97843.13
2019-04-07T04:16:34.031Z,97835.55
2019-04-07T04:19:05.120Z,97836.08
2019-04-07T04:21:34.414Z,97840.88
2019-04-07T04:24:04.361Z,97840.62
2019-04-07T04:26:37.917Z,97847.00
2019-04-07T04:29:08.313Z,97846.74
2019-04-07T04:31:38.866Z,97844.13
2019-04-07T04:34:10.203Z,97848.67
2019-04-07T04:36:40.762Z,97846.16
2019-04-07T04:39:10.754Z,97849.39
2019-04-07T04:41:40.901Z,97849.77
2019-04-07T04:44:10.394Z,97848.45
2019-04-07T04:46:41.107Z,97854.22
2019-04-07T04:49:11.866Z,97850.28
2019-04-07T04:51:42.611Z,97849.21
2019-04-07T04:54:12.606Z,97853.30
2019-04-07T04:56:43.428Z,97859.19
2019-04-07T04:59:12.931Z,97853.67
2019-04-07T05:01:43.293Z,97857.98
2019-04-07T05:04:13.410Z,97861.84
2019-04-07T05:06:45.668Z,97869.78
2019-04-07T05:09:16.069Z,97874.20
2019-04-07T05:11:45.278Z,97882.00
2019-04-07T05:14:15.197Z,97890.30
2019-04-07T05:16:44.773Z,97890.28
2019-04-07T05:19:14.289Z,97891.83
2019-04-07T05:21:44.354Z,97892.09
2019-04-07T05:24:13.517Z,97906.14
2019-04-07T05:26:43.301Z,97900.61
2019-04-07T05:29:12.475Z,97895.83
2019-04-07T05:31:41.967Z,97903.14
2019-04-07T05:34:14.273Z,97901.09
2019-04-07T05:36:42.405Z,97904.81
2019-04-07T05:39:15.402Z,97909.62
2019-04-07T05:41:45.027Z,97906.84
2019-04-07T05:44:21.088Z,97907.08
2019-04-07T05:46:52.855Z,97907.56
2019-04-07T05:49:24.271Z,97908.96
2019-04-07T05:51:54.475Z,97902.51
2019-04-07T05:54:24.064Z,97906.34
2019-04-07T05:56:54.125Z,97905.61
2019-04-07T05:59:25.407Z,97905.48
2019-04-07T06:02:00.755Z,97906.22
2019-04-07T06:04:28.330Z,97899.13
2019-04-07T06:07:00.384Z,97901.06
2019-04-07T06:09:32.845Z,97910.18
2019-04-07T06:12:03.025Z,97905.48
2019-04-07T06:14:32.357Z,97907.66
2019-04-07T06:17:02.361Z,97910.81
2019-04-07T06:19:31.573Z,97905.96
2019-04-07T06:22:07.519Z,97910.16
2019-04-07T06:24:36.155Z,97907.48
2019-04-07T06:27:07.091Z,97906.59
2019-04-07T06:29:36.606Z,97906.83
2019-04-07T06:32:09.760Z,97910.64
2019-04-07T06:34:39.884Z,97912.12
2019-04-07T06:37:07.758Z,97909.03
2019-04-07T06:39:37.385Z,97907.98
2019-04-07T06:42:07.486Z,97902.06
2019-04-07T06:44:38.524Z,97905.60
2019-04-07T06:47:21.462Z,97904.47
2019-04-07T06:50:14.199Z,97907.35
2019-04-07T06:53:10.575Z,97905.97
2019-04-07T06:56:00.033Z,97910.92
2019-04-07T06:58:45.158Z,97911.41
2019-04-07T07:01:32.300Z,97911.34
2019-04-07T07:04:19.450Z,97915.01
2019-04-07T07:07:07.330Z,97910.64
2019-04-07T07:09:52.050Z,97908.78
2019-04-07T07:12:38.810Z,97915.72
2019-04-07T07:15:34.653Z,97913.56
2019-04-07T07:18:27.321Z,97912.39
2019-04-07T07:21:38.066Z,97919.41
2019-04-07T07:24:07.145Z,97919.76
2019-04-07T07:26:36.642Z,97919.42
2019-04-07T07:29:06.825Z,97916.82
2019-04-07T07:31:39.107Z,97917.53
2019-04-07T07:34:10.664Z,97919.70
2019-04-07T07:36:41.824Z,97916.17
2019-04-07T07:39:14.526Z,97914.50
2019-04-07T07:41:44.469Z,97917.80
2019-04-07T07:44:14.400Z,97924.48
2019-04-07T07:46:44.426Z,97926.50
2019-04-07T07:49:15.908Z,97927.62
2019-04-07T07:51:48.550Z,97925.84
2019-04-07T07:54:18.313Z,97925.59
2019-04-07T07:56:50.133Z,97928.72
2019-04-07T07:59:20.067Z,97927.16
2019-04-07T08:01:51.669Z,97931.69
2019-04-07T08:04:24.814Z,97931.34
2019-04-07T08:06:54.462Z,97935.03
2019-04-07T08:09:25.990Z,97935.44
2019-04-07T08:11:55.569Z,97939.06
2019-04-07T08:14:27.329Z,97940.20
2019-04-07T08:17:00.174Z,97939.06
2019-04-07T08:19:29.659Z,97945.56
2019-04-07T08:21:58.539Z,97939.55
2019-04-07T08:24:28.274Z,97935.66
2019-04-07T08:26:59.088Z,97941.08
2019-04-07T08:29:30.253Z,97941.67
2019-04-07T08:32:00.361Z,97939.98
2019-04-07T08:34:31.513Z,97941.13
2019-04-07T08:37:00.955Z,97940.23
2019-04-07T08:39:34.125Z,97945.02
2019-04-07T08:42:04.722Z,97935.33
2019-04-07T08:44:34.410Z,97942.44
2019-04-07T08:47:04.213Z,97940.36
2019-04-07T08:49:34.519Z,97939.48
2019-04-07T08:52:09.044Z,97940.68
2019-04-07T08:54:36.934Z,97942.27
2019-04-07T08:57:07.080Z,97946.06
2019-04-07T08:59:39.873Z,97940.89
2019-04-07T09:02:07.614Z,97937.39
2019-04-07T09:04:36.801Z,97938.56
2019-04-07T09:07:06.247Z,97938.10
2019-04-07T09:09:37.473Z,97948.61
2019-04-07T09:12:07.207Z,97941.27
2019-04-07T09:14:38.721Z,97942.54
2019-04-07T09:17:30.931Z,97948.10
2019-04-07T09:20:18.968Z,97940.45
2019-04-07T09:23:08.139Z,97949.61
2019-04-07T09:26:04.028Z,97944.29
2019-04-07T09:28:57.467Z,97952.45
2019-04-07T09:31:49.673Z,97940.97
2019-04-07T09:34:41.380Z,97948.98
2019-04-07T09:37:23.546Z,97943.14
2019-04-07T09:40:06.757Z,97946.84
2019-04-07T09:42:57.596Z,97946.34
2019-04-07T09:45:32.453Z,97934.80
2019-04-07T09:48:07.927Z,97943.58
2019-04-07T09:50:58.648Z,97943.78
2019-04-07T09:53:42.429Z,97944.97
2019-04-07T09:56:27.252Z,97938.69
2019-04-07T09:59:10.056Z,97941.39
2019-04-07T10:01:52.848Z,97944.20
2019-04-07T10:04:37.930Z,97934.84
2019-04-07T10:07:28.400Z,97928.52
2019-04-07T10:10:13.748Z,97925.44
2019-04-07T10:13:06.687Z,97927.85
2019-04-07T10:16:10.776Z,97923.31
2019-04-07T10:19:07.624Z,97916.55
2019-04-07T10:21:51.765Z,97925.49
2019-04-07T10:24:34.714Z,97924.27
2019-04-07T10:27:11.185Z,97927.16
2019-04-07T10:29:58.143Z,97925.81
2019-04-07T10:32:34.067Z,97926.52
2019-04-07T10:35:30.668Z,97934.88
2019-04-07T10:38:09.976Z,97939.47
2019-04-07T10:40:52.551Z,97938.13
2019-04-07T10:43:41.007Z,97934.51
2019-04-07T10:46:31.229Z,97936.30
2019-04-07T10:49:19.289Z,97935.26
2019-04-07T10:52:23.513Z,97932.70
2019-04-07T10:55:10.105Z,97941.90
2019-04-07T10:57:49.401Z,97934.29
2019-04-07T11:00:48.823Z,97937.19
2019-04-07T11:03:26.256Z,97935.34
2019-04-07T11:06:21.524Z,97931.28
2019-04-07T11:09:08.825Z,97932.84
2019-04-07T11:11:57.765Z,97925.78
2019-04-07T11:14:48.125Z,97929.76
2019-04-07T11:17:29.234Z,97924.28
2019-04-07T11:20:20.555Z,97933.78
2019-04-07T11:23:13.002Z,97927.53
2019-04-07T11:26:07.590Z,97926.70
2019-04-07T11:28:47.059Z,97931.62
2019-04-07T11:31:26.680Z,97932.56
2019-04-07T11:34:19.300Z,97926.38
2019-04-07T11:37:14.306Z,97933.33
2019-04-07T11:40:04.797Z,97924.84
2019-04-07T11:42:44.852Z,97925.70
2019-04-07T11:45:32.055Z,97923.64
2019-04-07T11:48:18.681Z,97925.52
2019-04-07T11:51:16.864Z,97916.42
2019-04-07T11:54:11.477Z,97929.08
2019-04-07T11:56:51.205Z,97913.81
2019-04-07T11:59:39.255Z,97918.94
2019-04-07T12:02:20.810Z,97917.28
2019-04-07T12:05:08.202Z,97912.33
2019-04-07T12:07:58.182Z,97911.50
2019-04-07T12:11:04.924Z,97915.95
2019-04-07T12:13:56.292Z,97920.80
2019-04-07T12:16:33.835Z,97921.82
2019-04-07T12:19:23.860Z,97922.83
2019-04-07T12:22:13.871Z,97922.70
2019-04-07T12:25:10.593Z,97920.03
2019-04-07T12:27:58.115Z,97919.80
2019-04-07T12:31:02.165Z,97920.52
2019-04-07T12:33:59.962Z,97916.97
2019-04-07T12:36:48.354Z,97913.95
2019-04-07T12:39:28.835Z,97919.06
2019-04-07T12:42:22.343Z,97905.84
2019-04-07T12:45:11.222Z,97900.16
2019-04-07T12:47:55.485Z,97903.55
2019-04-07T12:50:37.642Z,97898.52
2019-04-07T12:53:26.682Z,97900.26
2019-04-07T12:56:13.522Z,97891.96
2019-04-07T12:58:52.675Z,97892.97
2019-04-07T13:01:35.250Z,97888.84
2019-04-07T13:04:27.518Z,97893.85
2019-04-07T13:07:05.755Z,97895.78
2019-04-07T13:10:02.876Z,97895.45
2019-04-07T13:13:05.085Z,97884.58
2019-04-07T13:16:00.352Z,97891.48
2019-04-07T13:18:50.332Z,97881.22
2019-04-07T13:21:25.561Z,97881.30
2019-04-07T13:24:28.388Z,97873.34
2019-04-07T13:26:52.743Z,97878.02
2019-04-07T13:29:43.284Z,97876.90
2019-04-07T13:32:40.237Z,97872.24
2019-04-07T13:35:24.629Z,97872.19
2019-04-07T13:38:12.275Z,97869.70
2019-04-07T13:41:00.716Z,97866.09
2019-04-07T13:44:07.611Z,97867.16
2019-04-07T13:46:54.309Z,97874.11
2019-04-07T13:49:55.390Z,97870.38
2019-04-07T13:52:41.956Z,97873.18
2019-04-07T13:55:22.096Z,97866.89
2019-04-07T13:58:13.934Z,97869.78
2019-04-07T14:00:55.828Z,97875.07
2019-04-07T14:03:40.606Z,97873.09
2019-04-07T14:06:20.528Z,97867.97
2019-04-07T14:09:19.147Z,97867.78
2019-04-07T14:12:12.332Z,97870.76
2019-04-07T14:15:06.044Z,97873.53
2019-04-07T14:18:00.057Z,97863.09
2019-04-07T14:20:52.902Z,97871.04
2019-04-07T14:23:54.650Z,97875.67
2019-04-07T14:26:58.911Z,97875.78
2019-04-07T14:29:53.611Z,97868.62
2019-04-07T14:32:42.781Z,97871.93
2019-04-07T14:35:30.521Z,97867.99
2019-04-07T14:38:40.059Z,97877.59
2019-04-07T14:41:29.947Z,97871.98
2019-04-07T14:44:26.491Z,97873.67
2019-04-07T14:47:08.795Z,97876.64
2019-04-07T14:50:00.556Z,97882.83
2019-04-07T14:52:58.512Z,97877.62
2019-04-07T14:56:07.723Z,97872.14
2019-04-07T14:58:51.304Z,97883.59
2019-04-07T15:01:41.098Z,97885.16
2019-04-07T15:04:10.863Z,97882.80
2019-04-07T15:06:40.557Z,97877.55
2019-04-07T15:09:29.493Z,97880.22
2019-04-07T15:12:20.139Z,97890.78
2019-04-07T15:14:45.981Z,97887.20
2019-04-07T15:17:17.698Z,97888.55
2019-04-07T15:19:49.311Z,97898.03
2019-04-07T15:22:19.599Z,97891.36
2019-04-07T15:24:49.512Z,97894.55
2019-04-07T15:27:21.931Z,97900.25
2019-04-07T15:29:51.339Z,97891.02
2019-04-07T15:32:24.527Z,97890.62
2019-04-07T15:34:54.654Z,97884.57
2019-04-07T15:37:25.123Z,97880.59
2019-04-07T15:39:54.272Z,97882.39
2019-04-07T15:42:34.964Z,97883.63
2019-04-07T15:44:54.526Z,97886.91
2019-04-07T15:47:25.489Z,97897.65
2019-04-07T15:50:05.414Z,97893.30
2019-04-07T15:52:37.058Z,97891.38
2019-04-07T15:55:07.268Z,97895.73
2019-04-07T15:57:37.276Z,97896.69
2019-04-07T16:00:07.903Z,97903.09
2019-04-07T16:02:40.939Z,97902.34
2019-04-07T16:05:11.604Z,97902.86
2019-04-07T16:07:42.087Z,97911.21
2019-04-07T16:10:11.665Z,97907.48
2019-04-07T16:12:49.601Z,97907.91
2019-04-07T16:15:16.584Z,97919.14
2019-04-07T16:17:47.613Z,97919.94
2019-04-07T16:20:23.224Z,97913.98
2019-04-07T16:22:53.178Z,97917.81
2019-04-07T16:25:27.536Z,97912.66
2019-04-07T16:27:54.622Z,97918.49
2019-04-07T16:30:24.810Z,97918.14
2019-04-07T16:32:54.792Z,97915.20
2019-04-07T16:35:27.826Z,97924.80
2019-04-07T16:37:58.327Z,97920.73
2019-04-07T16:40:29.239Z,97921.86
2019-04-07T16:43:07.679Z,97923.66
2019-04-07T16:45:30.450Z,97921.69
2019-04-07T16:48:00.026Z,97919.52
2019-04-07T16:50:31.560Z,97922.91
2019-04-07T16:53:04.507Z,97930.13
2019-04-07T16:55:37.211Z,97927.94
2019-04-07T16:58:14.469Z,97926.56
2019-04-07T17:00:47.599Z,97933.42
2019-04-07T17:03:18.218Z,97931.38
2019-04-07T17:05:47.422Z,97936.80
2019-04-07T17:08:22.461Z,97939.35
2019-04-07T17:10:52.755Z,97939.30
2019-04-07T17:13:37.085Z,97944.85
2019-04-07T17:15:59.398Z,97943.84
2019-04-07T17:18:41.205Z,97950.27
2019-04-07T17:21:15.644Z,97942.03
2019-04-07T17:23:46.068Z,97949.41
2019-04-07T17:26:15.316Z,97944.33
2019-04-07T17:28:47.413Z,97945.99
2019-04-07T17:31:17.492Z,97949.05
2019-04-07T17:33:49.527Z,97955.77
2019-04-07T17:36:21.636Z,97958.13
2019-04-07T17:39:18.650Z,97956.00
2019-04-07T17:41:50.947Z,97960.44
2019-04-07T17:44:41.726Z,97953.75
2019-04-07T17:47:39.379Z,97965.41
2019-04-07T17:50:31.579Z,97966.41
2019-04-07T17:53:16.159Z,97969.39
2019-04-07T17:56:06.796Z,97975.97
2019-04-07T17:58:45.734Z,97977.00
2019-04-07T18:01:43.063Z,97982.48
2019-04-07T18:04:25.563Z,97984.50
2019-04-07T18:07:12.381Z,97982.52
2019-04-07T18:10:15.470Z,97985.22
2019-04-07T18:12:55.611Z,97991.39
2019-04-07T18:15:40.113Z,97989.41
2019-04-07T18:18:24.911Z,97989.09
2019-04-07T18:21:13.307Z,97997.27
2019-04-07T18:24:15.511Z,98005.30
2019-04-07T18:27:00.369Z,98006.84
2019-04-07T18:29:53.957Z,98009.84
2019-04-07T18:33:03.071Z,98015.88
2019-04-07T18:35:54.317Z,98009.19
2019-04-07T18:38:54.962Z,98020.05
2019-04-07T18:41:36.528Z,98016.24
2019-04-07T18:44:29.484Z,98021.89
2019-04-07T18:47:31.611Z,98028.08
2019-04-07T18:50:39.667Z,98027.73
2019-04-07T18:53:48.665Z,98036.77
2019-04-07T18:56:46.176Z,98043.95
2019-04-07T18:59:55.588Z,98044.95
2019-04-07T19:02:33.271Z,98042.11
2019-04-07T19:05:31.571Z,98049.08
2019-04-07T19:08:20.118Z,98050.25
2019-04-07T19:11:16.591Z,98050.22
2019-04-07T19:14:33.490Z,98055.07
2019-04-07T19:17:10.795Z,98059.72
2019-04-07T19:19:59.528Z,98054.54
2019-04-07T19:22:52.829Z,98062.86
2019-04-07T19:25:47.863Z,98063.03
2019-04-07T19:28:43.153Z,98061.16
2019-04-07T19:31:30.407Z,98068.20
2019-04-07T19:34:20.589Z,98065.66
2019-04-07T19:36:57.161Z,98067.29
2019-04-07T19:39:53.610Z,98067.58
2019-04-07T19:42:39.902Z,98070.91
2019-04-07T19:45:30.701Z,98068.91
2019-04-07T19:48:30.893Z,98072.46
2019-04-07T19:51:29.379Z,98078.88
2019-04-07T19:54:19.111Z,98073.98
2019-04-07T19:57:17.612Z,98075.22
2019-04-07T20:00:06.192Z,98071.88
2019-04-07T20:02:53.168Z,98082.33
2019-04-07T20:05:57.061Z,98080.87
2019-04-07T20:08:49.302Z,98077.66
2019-04-07T20:11:37.112Z,98079.70
2019-04-07T20:14:45.079Z,98086.90
2019-04-07T20:17:29.291Z,98088.17
2019-04-07T20:20:15.850Z,98092.72
2019-04-07T20:23:12.503Z,98091.45
2019-04-07T20:26:01.710Z,98092.45
2019-04-07T20:28:45.105Z,98090.32
2019-04-07T20:31:23.732Z,98092.97
2019-04-07T20:34:12.031Z,98090.75
2019-04-07T20:37:00.206Z,98089.63
2019-04-07T20:39:51.106Z,98089.73
2019-04-07T20:42:48.424Z,98093.06
2019-04-07T20:45:36.588Z,98088.92
2019-04-07T20:48:33.495Z,98094.66
2019-04-07T20:51:26.333Z,98084.97
2019-04-07T20:54:07.656Z,98085.14
2019-04-07T20:56:48.412Z,98090.16
2019-04-07T20:59:48.614Z,98086.23
2019-04-07T21:02:29.341Z,98094.73
2019-04-07T21:05:22.939Z,98094.55
2019-04-07T21:08:08.522Z,98092.31
2019-04-07T21:11:04.755Z,98096.64
2019-04-07T21:13:47.332Z,98102.34
2019-04-07T21:16:32.463Z,98094.23
2019-04-07T21:19:12.505Z,98101.90
2019-04-07T21:22:01.323Z,98100.59
2019-04-07T21:24:51.746Z,98098.00
2019-04-07T21:27:52.831Z,98101.06
2019-04-07T21:30:43.001Z,98105.48
2019-04-07T21:33:25.654Z,98105.30
2019-04-07T21:36:14.151Z,98107.13
2019-04-07T21:39:20.462Z,98104.97
2019-04-07T21:42:09.276Z,98107.50
2019-04-07T21:45:05.441Z,98104.88
2019-04-07T21:47:59.893Z,98111.16
2019-04-07T21:50:56.842Z,98106.40
2019-04-07T21:53:51.487Z,98108.31
2019-04-07T21:56:43.171Z,98107.50
2019-04-07T21:59:33.809Z,98110.57
2019-04-07T22:02:21.737Z,98115.97
2019-04-07T22:05:26.890Z,98111.41
2019-04-07T22:08:14.599Z,98116.03
2019-04-07T22:10:40.174Z,98118.05
2019-04-07T22:13:16.988Z,98110.02
2019-04-07T22:15:51.870Z,98111.06
2019-04-07T22:18:18.151Z,98113.82
2019-04-07T22:20:52.301Z,98109.95
2019-04-07T22:23:22.986Z,98111.85
2019-04-07T22:25:54.846Z,98112.78
2019-04-07T22:28:28.357Z,98109.22
2019-04-07T22:30:57.460Z,98112.47
2019-04-07T22:33:30.126Z,98114.14
2019-04-07T22:35:57.672Z,98112.38
2019-04-07T22:38:27.431Z,98111.54
2019-04-07T22:40:58.375Z,98107.80
2019-04-07T22:43:50.830Z,98116.50
2019-04-07T22:46:24.557Z,98120.34
2019-04-07T22:48:53.173Z,98121.09
2019-04-07T22:51:23.803Z,98125.19
2019-04-07T22:53:56.855Z,98122.80
2019-04-07T22:56:29.844Z,98130.33
2019-04-07T22:59:01.592Z,98128.38
2019-04-07T23:01:33.378Z,98129.34
2019-04-07T23:04:03.498Z,98133.67
2019-04-07T23:06:34.073Z,98130.77
2019-04-07T23:09:06.341Z,98128.00
2019-04-07T23:11:35.803Z,98128.25
2019-04-07T23:14:09.387Z,98132.53
2019-04-07T23:16:38.717Z,98123.75
2019-04-07T23:19:08.796Z,98132.34
2019-04-07T23:21:38.429Z,98132.98
2019-04-07T23:24:07.775Z,98130.28
2019-04-07T23:26:36.940Z,98130.62
2019-04-07T23:29:06.638Z,98127.03
2019-04-07T23:31:36.330Z,98132.41
2019-04-07T23:34:06.367Z,98132.14
2019-04-07T23:36:36.185Z,98132.79
2019-04-07T23:39:07.716Z,98132.79
2019-04-07T23:41:37.300Z,98132.11
2019-04-07T23:44:07.407Z,98132.14
2019-04-07T23:46:36.579Z,98139.70
2019-04-07T23:49:06.057Z,98135.91
2019-04-07T23:51:35.252Z,98144.29
2019-04-07T23:54:14.282Z,98143.02
2019-04-07T23:56:44.670Z,98143.02
2019-04-07T23:59:14.665Z,98142.68
